sensor_id;sensor_type;location;lat;lon;timestamp;P1;durP1;ratioP1;P2;durP2;ratioP2
16813;SDS011;8524;57.650;11.926;2022-07-17T00:00:41;8.70;;;2.73;;
16813;SDS011;8524;57.650;11.926;2022-07-17T00:03:09;9.33;;;2.73;;
16813;SDS011;8524;57.650;11.926;2022-07-17T00:05:37;6.77;;;2.97;;
16813;SDS011;8524;57.650;11.926;2022-07-17T00:08:04;6.82;;;3.05;;
16813;SDS011;8524;57.650;11.926;2022-07-17T00:10:32;9.53;;;3.50;;
16813;SDS011;8524;57.650;11.926;2022-07-17T00:12:59;7.10;;;3.10;;
16813;SDS011;8524;57.650;11.926;2022-07-17T00:15:28;10.53;;;3.07;;
16813;SDS011;8524;57.650;11.926;2022-07-17T00:17:55;7.43;;;2.80;;
16813;SDS011;8524;57.650;11.926;2022-07-17T00:20:22;9.13;;;3.67;;
16813;SDS011;8524;57.650;11.926;2022-07-17T00:22:50;9.67;;;2.97;;
16813;SDS011;8524;57.650;11.926;2022-07-17T00:25:17;9.20;;;3.40;;
16813;SDS011;8524;57.650;11.926;2022-07-17T00:27:44;8.57;;;3.30;;
16813;SDS011;8524;57.650;11.926;2022-07-17T00:30:11;11.07;;;3.00;;
16813;SDS011;8524;57.650;11.926;2022-07-17T00:32:39;11.03;;;3.00;;
16813;SDS011;8524;57.650;11.926;2022-07-17T00:35:07;6.30;;;2.87;;
16813;SDS011;8524;57.650;11.926;2022-07-17T00:37:37;10.60;;;3.67;;
16813;SDS011;8524;57.650;11.926;2022-07-17T00:40:05;10.17;;;3.20;;
16813;SDS011;8524;57.650;11.926;2022-07-17T00:42:33;9.40;;;3.53;;
16813;SDS011;8524;57.650;11.926;2022-07-17T00:45:00;10.43;;;2.93;;
16813;SDS011;8524;57.650;11.926;2022-07-17T00:47:27;10.90;;;3.03;;
16813;SDS011;8524;57.650;11.926;2022-07-17T00:49:56;10.13;;;3.53;;
16813;SDS011;8524;57.650;11.926;2022-07-17T00:52:23;7.28;;;3.20;;
16813;SDS011;8524;57.650;11.926;2022-07-17T00:54:50;7.80;;;3.10;;
16813;SDS011;8524;57.650;11.926;2022-07-17T00:57:18;9.43;;;3.53;;
16813;SDS011;8524;57.650;11.926;2022-07-17T00:59:46;9.47;;;3.43;;
16813;SDS011;8524;57.650;11.926;2022-07-17T01:02:13;11.00;;;3.23;;
16813;SDS011;8524;57.650;11.926;2022-07-17T01:04:40;11.33;;;3.53;;
16813;SDS011;8524;57.650;11.926;2022-07-17T01:07:08;14.57;;;3.87;;
16813;SDS011;8524;57.650;11.926;2022-07-17T01:09:35;11.50;;;3.60;;
16813;SDS011;8524;57.650;11.926;2022-07-17T01:12:02;10.90;;;3.60;;
16813;SDS011;8524;57.650;11.926;2022-07-17T01:14:31;13.77;;;3.73;;
16813;SDS011;8524;57.650;11.926;2022-07-17T01:16:58;11.83;;;3.53;;
16813;SDS011;8524;57.650;11.926;2022-07-17T01:19:26;14.53;;;4.23;;
16813;SDS011;8524;57.650;11.926;2022-07-17T01:21:55;13.43;;;4.20;;
16813;SDS011;8524;57.650;11.926;2022-07-17T01:24:22;13.13;;;3.63;;
16813;SDS011;8524;57.650;11.926;2022-07-17T01:26:49;10.73;;;3.90;;
16813;SDS011;8524;57.650;11.926;2022-07-17T01:29:16;9.10;;;3.80;;
16813;SDS011;8524;57.650;11.926;2022-07-17T01:31:44;8.50;;;3.50;;
16813;SDS011;8524;57.650;11.926;2022-07-17T01:34:11;11.10;;;3.43;;
16813;SDS011;8524;57.650;11.926;2022-07-17T01:36:38;13.73;;;3.92;;
16813;SDS011;8524;57.650;11.926;2022-07-17T01:39:07;11.17;;;3.90;;
16813;SDS011;8524;57.650;11.926;2022-07-17T01:41:34;8.43;;;3.37;;
16813;SDS011;8524;57.650;11.926;2022-07-17T01:44:01;9.83;;;3.33;;
16813;SDS011;8524;57.650;11.926;2022-07-17T01:46:29;9.20;;;3.27;;
16813;SDS011;8524;57.650;11.926;2022-07-17T01:48:56;10.90;;;4.03;;
16813;SDS011;8524;57.650;11.926;2022-07-17T01:51:26;8.73;;;3.33;;
16813;SDS011;8524;57.650;11.926;2022-07-17T01:53:53;10.52;;;4.00;;
16813;SDS011;8524;57.650;11.926;2022-07-17T01:56:21;11.17;;;3.57;;
16813;SDS011;8524;57.650;11.926;2022-07-17T01:58:48;11.23;;;3.57;;
16813;SDS011;8524;57.650;11.926;2022-07-17T02:01:15;8.90;;;3.13;;
16813;SDS011;8524;57.650;11.926;2022-07-17T02:03:42;7.63;;;4.13;;
16813;SDS011;8524;57.650;11.926;2022-07-17T02:06:09;8.60;;;3.70;;
16813;SDS011;8524;57.650;11.926;2022-07-17T02:08:36;10.00;;;3.57;;
16813;SDS011;8524;57.650;11.926;2022-07-17T02:11:03;11.97;;;3.73;;
16813;SDS011;8524;57.650;11.926;2022-07-17T02:13:32;12.37;;;3.83;;
16813;SDS011;8524;57.650;11.926;2022-07-17T02:15:58;17.73;;;4.97;;
16813;SDS011;8524;57.650;11.926;2022-07-17T02:18:25;10.30;;;3.70;;
16813;SDS011;8524;57.650;11.926;2022-07-17T02:20:52;11.70;;;4.00;;
16813;SDS011;8524;57.650;11.926;2022-07-17T02:23:19;20.17;;;5.23;;
16813;SDS011;8524;57.650;11.926;2022-07-17T02:25:46;12.37;;;3.60;;
16813;SDS011;8524;57.650;11.926;2022-07-17T02:28:13;14.63;;;3.80;;
16813;SDS011;8524;57.650;11.926;2022-07-17T02:30:41;13.80;;;4.00;;
16813;SDS011;8524;57.650;11.926;2022-07-17T02:33:08;16.87;;;4.53;;
16813;SDS011;8524;57.650;11.926;2022-07-17T02:35:35;17.20;;;4.40;;
16813;SDS011;8524;57.650;11.926;2022-07-17T02:38:02;8.50;;;3.13;;
16813;SDS011;8524;57.650;11.926;2022-07-17T02:40:29;10.30;;;3.17;;
16813;SDS011;8524;57.650;11.926;2022-07-17T02:42:56;10.13;;;3.23;;
16813;SDS011;8524;57.650;11.926;2022-07-17T02:45:23;11.20;;;3.60;;
16813;SDS011;8524;57.650;11.926;2022-07-17T02:47:52;9.50;;;3.47;;
16813;SDS011;8524;57.650;11.926;2022-07-17T02:50:20;11.53;;;4.10;;
16813;SDS011;8524;57.650;11.926;2022-07-17T02:52:47;11.37;;;3.73;;
16813;SDS011;8524;57.650;11.926;2022-07-17T02:55:14;10.67;;;3.77;;
16813;SDS011;8524;57.650;11.926;2022-07-17T02:57:42;12.00;;;3.60;;
16813;SDS011;8524;57.650;11.926;2022-07-17T03:00:12;14.20;;;4.33;;
16813;SDS011;8524;57.650;11.926;2022-07-17T03:02:41;13.53;;;3.63;;
16813;SDS011;8524;57.650;11.926;2022-07-17T03:05:09;12.53;;;3.90;;
16813;SDS011;8524;57.650;11.926;2022-07-17T03:07:36;13.73;;;3.30;;
16813;SDS011;8524;57.650;11.926;2022-07-17T03:10:04;8.97;;;3.03;;
16813;SDS011;8524;57.650;11.926;2022-07-17T03:12:31;8.00;;;3.07;;
16813;SDS011;8524;57.650;11.926;2022-07-17T03:14:58;13.20;;;3.80;;
16813;SDS011;8524;57.650;11.926;2022-07-17T03:17:26;10.60;;;2.97;;
16813;SDS011;8524;57.650;11.926;2022-07-17T03:19:52;7.73;;;2.77;;
16813;SDS011;8524;57.650;11.926;2022-07-17T03:22:21;9.63;;;2.87;;
16813;SDS011;8524;57.650;11.926;2022-07-17T03:24:48;8.13;;;3.03;;
16813;SDS011;8524;57.650;11.926;2022-07-17T03:27:15;11.80;;;3.25;;
16813;SDS011;8524;57.650;11.926;2022-07-17T03:29:42;6.80;;;2.80;;
16813;SDS011;8524;57.650;11.926;2022-07-17T03:32:09;6.20;;;2.67;;
16813;SDS011;8524;57.650;11.926;2022-07-17T03:34:37;9.43;;;2.93;;
16813;SDS011;8524;57.650;11.926;2022-07-17T03:37:04;8.43;;;2.57;;
16813;SDS011;8524;57.650;11.926;2022-07-17T03:39:32;6.70;;;2.60;;
16813;SDS011;8524;57.650;11.926;2022-07-17T03:42:00;9.87;;;3.23;;
16813;SDS011;8524;57.650;11.926;2022-07-17T03:44:26;10.13;;;2.70;;
16813;SDS011;8524;57.650;11.926;2022-07-17T03:46:53;11.47;;;2.90;;
16813;SDS011;8524;57.650;11.926;2022-07-17T03:49:20;6.63;;;2.60;;
16813;SDS011;8524;57.650;11.926;2022-07-17T03:51:48;7.53;;;2.17;;
16813;SDS011;8524;57.650;11.926;2022-07-17T03:54:15;6.60;;;2.30;;
16813;SDS011;8524;57.650;11.926;2022-07-17T03:56:43;6.60;;;2.30;;
16813;SDS011;8524;57.650;11.926;2022-07-17T03:59:10;7.33;;;2.40;;
16813;SDS011;8524;57.650;11.926;2022-07-17T04:01:37;7.93;;;2.53;;
16813;SDS011;8524;57.650;11.926;2022-07-17T04:04:04;6.23;;;2.17;;
16813;SDS011;8524;57.650;11.926;2022-07-17T04:06:31;6.53;;;2.20;;
16813;SDS011;8524;57.650;11.926;2022-07-17T04:08:58;6.43;;;2.50;;
16813;SDS011;8524;57.650;11.926;2022-07-17T04:11:25;6.67;;;2.00;;
16813;SDS011;8524;57.650;11.926;2022-07-17T04:13:53;6.60;;;2.03;;
16813;SDS011;8524;57.650;11.926;2022-07-17T04:16:20;6.93;;;2.20;;
16813;SDS011;8524;57.650;11.926;2022-07-17T04:18:47;8.13;;;2.00;;
16813;SDS011;8524;57.650;11.926;2022-07-17T04:21:14;4.27;;;2.03;;
16813;SDS011;8524;57.650;11.926;2022-07-17T04:23:41;4.23;;;1.73;;
16813;SDS011;8524;57.650;11.926;2022-07-17T04:26:08;5.03;;;1.80;;
16813;SDS011;8524;57.650;11.926;2022-07-17T04:28:35;4.50;;;1.70;;
16813;SDS011;8524;57.650;11.926;2022-07-17T04:31:04;3.13;;;1.10;;
16813;SDS011;8524;57.650;11.926;2022-07-17T04:33:31;5.60;;;1.60;;
16813;SDS011;8524;57.650;11.926;2022-07-17T04:35:58;3.10;;;1.30;;
16813;SDS011;8524;57.650;11.926;2022-07-17T04:38:25;3.70;;;1.20;;
16813;SDS011;8524;57.650;11.926;2022-07-17T04:40:52;2.37;;;1.23;;
16813;SDS011;8524;57.650;11.926;2022-07-17T04:43:19;3.07;;;1.23;;
16813;SDS011;8524;57.650;11.926;2022-07-17T04:45:45;4.50;;;1.30;;
16813;SDS011;8524;57.650;11.926;2022-07-17T04:48:14;3.83;;;1.00;;
16813;SDS011;8524;57.650;11.926;2022-07-17T04:50:41;1.90;;;1.00;;
16813;SDS011;8524;57.650;11.926;2022-07-17T04:53:08;4.47;;;1.03;;
16813;SDS011;8524;57.650;11.926;2022-07-17T04:55:34;2.90;;;0.93;;
16813;SDS011;8524;57.650;11.926;2022-07-17T04:58:02;2.27;;;0.80;;
16813;SDS011;8524;57.650;11.926;2022-07-17T05:00:29;2.73;;;1.03;;
16813;SDS011;8524;57.650;11.926;2022-07-17T05:02:56;4.30;;;1.00;;
16813;SDS011;8524;57.650;11.926;2022-07-17T05:05:25;3.00;;;0.90;;
16813;SDS011;8524;57.650;11.926;2022-07-17T05:07:52;2.10;;;0.70;;
16813;SDS011;8524;57.650;11.926;2022-07-17T05:10:19;1.77;;;0.80;;
16813;SDS011;8524;57.650;11.926;2022-07-17T05:12:46;0.93;;;0.60;;
16813;SDS011;8524;57.650;11.926;2022-07-17T05:15:13;3.88;;;0.90;;
16813;SDS011;8524;57.650;11.926;2022-07-17T05:17:40;2.20;;;0.80;;
16813;SDS011;8524;57.650;11.926;2022-07-17T05:20:07;3.13;;;1.00;;
16813;SDS011;8524;57.650;11.926;2022-07-17T05:22:35;3.17;;;1.17;;
16813;SDS011;8524;57.650;11.926;2022-07-17T05:25:03;1.47;;;0.80;;
16813;SDS011;8524;57.650;11.926;2022-07-17T05:27:30;2.47;;;0.90;;
16813;SDS011;8524;57.650;11.926;2022-07-17T05:29:57;1.73;;;0.60;;
16813;SDS011;8524;57.650;11.926;2022-07-17T05:32:24;1.73;;;0.70;;
16813;SDS011;8524;57.650;11.926;2022-07-17T05:34:51;2.90;;;1.13;;
16813;SDS011;8524;57.650;11.926;2022-07-17T05:37:18;2.00;;;0.80;;
16813;SDS011;8524;57.650;11.926;2022-07-17T05:39:46;2.03;;;0.80;;
16813;SDS011;8524;57.650;11.926;2022-07-17T05:42:13;2.37;;;0.90;;
16813;SDS011;8524;57.650;11.926;2022-07-17T05:44:40;2.00;;;0.73;;
16813;SDS011;8524;57.650;11.926;2022-07-17T05:47:07;1.70;;;0.97;;
16813;SDS011;8524;57.650;11.926;2022-07-17T05:49:34;1.27;;;0.67;;
16813;SDS011;8524;57.650;11.926;2022-07-17T05:52:01;1.77;;;0.80;;
16813;SDS011;8524;57.650;11.926;2022-07-17T05:54:28;3.57;;;0.80;;
16813;SDS011;8524;57.650;11.926;2022-07-17T05:56:58;1.43;;;0.60;;
16813;SDS011;8524;57.650;11.926;2022-07-17T05:59:25;1.47;;;0.60;;
16813;SDS011;8524;57.650;11.926;2022-07-17T06:01:53;2.28;;;0.80;;
16813;SDS011;8524;57.650;11.926;2022-07-17T06:04:20;0.97;;;0.53;;
16813;SDS011;8524;57.650;11.926;2022-07-17T06:06:47;2.67;;;0.77;;
16813;SDS011;8524;57.650;11.926;2022-07-17T06:09:14;2.30;;;0.90;;
16813;SDS011;8524;57.650;11.926;2022-07-17T06:11:40;1.73;;;1.07;;
16813;SDS011;8524;57.650;11.926;2022-07-17T06:14:09;2.07;;;0.80;;
16813;SDS011;8524;57.650;11.926;2022-07-17T06:16:36;2.37;;;1.00;;
16813;SDS011;8524;57.650;11.926;2022-07-17T06:19:02;1.80;;;0.73;;
16813;SDS011;8524;57.650;11.926;2022-07-17T06:21:29;2.37;;;0.60;;
16813;SDS011;8524;57.650;11.926;2022-07-17T06:23:56;2.23;;;0.67;;
16813;SDS011;8524;57.650;11.926;2022-07-17T06:26:23;2.63;;;0.60;;
16813;SDS011;8524;57.650;11.926;2022-07-17T06:28:50;2.07;;;0.80;;
16813;SDS011;8524;57.650;11.926;2022-07-17T06:31:19;2.03;;;0.90;;
16813;SDS011;8524;57.650;11.926;2022-07-17T06:33:46;1.40;;;0.50;;
16813;SDS011;8524;57.650;11.926;2022-07-17T06:36:13;1.47;;;0.70;;
16813;SDS011;8524;57.650;11.926;2022-07-17T06:38:40;1.67;;;0.70;;
16813;SDS011;8524;57.650;11.926;2022-07-17T06:41:07;2.67;;;0.83;;
16813;SDS011;8524;57.650;11.926;2022-07-17T06:43:34;1.30;;;0.77;;
16813;SDS011;8524;57.650;11.926;2022-07-17T06:46:01;2.50;;;0.73;;
16813;SDS011;8524;57.650;11.926;2022-07-17T06:48:30;1.00;;;0.50;;
16813;SDS011;8524;57.650;11.926;2022-07-17T06:50:56;2.60;;;0.90;;
16813;SDS011;8524;57.650;11.926;2022-07-17T06:53:23;2.70;;;0.67;;
16813;SDS011;8524;57.650;11.926;2022-07-17T06:55:50;1.70;;;0.60;;
16813;SDS011;8524;57.650;11.926;2022-07-17T06:58:17;2.40;;;0.70;;
16813;SDS011;8524;57.650;11.926;2022-07-17T07:00:44;1.03;;;0.50;;
16813;SDS011;8524;57.650;11.926;2022-07-17T07:03:11;1.83;;;0.60;;
16813;SDS011;8524;57.650;11.926;2022-07-17T07:05:39;1.63;;;0.87;;
16813;SDS011;8524;57.650;11.926;2022-07-17T07:08:06;1.27;;;0.70;;
16813;SDS011;8524;57.650;11.926;2022-07-17T07:10:33;1.87;;;0.90;;
16813;SDS011;8524;57.650;11.926;2022-07-17T07:13:00;2.60;;;0.80;;
16813;SDS011;8524;57.650;11.926;2022-07-17T07:15:27;0.83;;;0.70;;
16813;SDS011;8524;57.650;11.926;2022-07-17T07:17:54;2.33;;;0.80;;
16813;SDS011;8524;57.650;11.926;2022-07-17T07:20:21;1.43;;;0.80;;
16813;SDS011;8524;57.650;11.926;2022-07-17T07:22:49;2.03;;;0.70;;
16813;SDS011;8524;57.650;11.926;2022-07-17T07:25:16;1.03;;;0.60;;
16813;SDS011;8524;57.650;11.926;2022-07-17T07:27:43;2.27;;;0.73;;
16813;SDS011;8524;57.650;11.926;2022-07-17T07:30:10;1.38;;;0.70;;
16813;SDS011;8524;57.650;11.926;2022-07-17T07:32:37;2.37;;;0.77;;
16813;SDS011;8524;57.650;11.926;2022-07-17T07:35:04;1.37;;;0.67;;
16813;SDS011;8524;57.650;11.926;2022-07-17T07:37:32;1.77;;;0.70;;
16813;SDS011;8524;57.650;11.926;2022-07-17T07:40:01;1.40;;;0.60;;
16813;SDS011;8524;57.650;11.926;2022-07-17T07:42:28;1.17;;;0.70;;
16813;SDS011;8524;57.650;11.926;2022-07-17T07:44:55;1.40;;;0.67;;
16813;SDS011;8524;57.650;11.926;2022-07-17T07:47:22;2.35;;;0.75;;
16813;SDS011;8524;57.650;11.926;2022-07-17T07:49:49;1.47;;;0.50;;
16813;SDS011;8524;57.650;11.926;2022-07-17T07:52:16;3.23;;;0.87;;
16813;SDS011;8524;57.650;11.926;2022-07-17T07:54:43;1.60;;;0.50;;
16813;SDS011;8524;57.650;11.926;2022-07-17T07:57:12;2.63;;;0.60;;
16813;SDS011;8524;57.650;11.926;2022-07-17T07:59:38;2.00;;;0.70;;
16813;SDS011;8524;57.650;11.926;2022-07-17T08:02:06;1.77;;;0.60;;
16813;SDS011;8524;57.650;11.926;2022-07-17T08:04:33;1.70;;;0.60;;
16813;SDS011;8524;57.650;11.926;2022-07-17T08:07:00;2.00;;;0.70;;
16813;SDS011;8524;57.650;11.926;2022-07-17T08:09:27;1.27;;;0.40;;
16813;SDS011;8524;57.650;11.926;2022-07-17T08:11:54;1.47;;;0.60;;
16813;SDS011;8524;57.650;11.926;2022-07-17T08:14:22;2.90;;;0.60;;
16813;SDS011;8524;57.650;11.926;2022-07-17T08:16:49;1.85;;;0.70;;
16813;SDS011;8524;57.650;11.926;2022-07-17T08:19:16;1.87;;;0.83;;
16813;SDS011;8524;57.650;11.926;2022-07-17T08:21:43;2.23;;;0.50;;
16813;SDS011;8524;57.650;11.926;2022-07-17T08:24:10;2.38;;;0.70;;
16813;SDS011;8524;57.650;11.926;2022-07-17T08:26:37;1.63;;;0.50;;
16813;SDS011;8524;57.650;11.926;2022-07-17T08:29:04;0.97;;;0.40;;
16813;SDS011;8524;57.650;11.926;2022-07-17T08:31:32;1.93;;;0.70;;
16813;SDS011;8524;57.650;11.926;2022-07-17T08:33:59;1.80;;;0.60;;
16813;SDS011;8524;57.650;11.926;2022-07-17T08:36:26;1.27;;;0.50;;
16813;SDS011;8524;57.650;11.926;2022-07-17T08:38:53;1.13;;;0.50;;
16813;SDS011;8524;57.650;11.926;2022-07-17T08:41:20;1.93;;;0.73;;
16813;SDS011;8524;57.650;11.926;2022-07-17T08:43:47;1.40;;;0.37;;
16813;SDS011;8524;57.650;11.926;2022-07-17T08:46:16;2.27;;;0.90;;
16813;SDS011;8524;57.650;11.926;2022-07-17T08:48:45;2.03;;;0.80;;
16813;SDS011;8524;57.650;11.926;2022-07-17T08:51:15;2.00;;;0.90;;
16813;SDS011;8524;57.650;11.926;2022-07-17T08:53:43;1.00;;;0.50;;
16813;SDS011;8524;57.650;11.926;2022-07-17T08:56:11;1.87;;;0.50;;
16813;SDS011;8524;57.650;11.926;2022-07-17T08:58:38;1.47;;;0.60;;
16813;SDS011;8524;57.650;11.926;2022-07-17T09:01:05;1.73;;;0.50;;
16813;SDS011;8524;57.650;11.926;2022-07-17T09:03:32;1.73;;;0.60;;
16813;SDS011;8524;57.650;11.926;2022-07-17T09:06:03;1.60;;;0.60;;
16813;SDS011;8524;57.650;11.926;2022-07-17T09:08:30;1.93;;;0.50;;
16813;SDS011;8524;57.650;11.926;2022-07-17T09:11:00;1.13;;;0.60;;
16813;SDS011;8524;57.650;11.926;2022-07-17T09:13:33;1.10;;;0.50;;
16813;SDS011;8524;57.650;11.926;2022-07-17T09:16:07;1.23;;;0.60;;
16813;SDS011;8524;57.650;11.926;2022-07-17T09:18:41;1.27;;;0.53;;
16813;SDS011;8524;57.650;11.926;2022-07-17T09:21:16;1.53;;;0.50;;
16813;SDS011;8524;57.650;11.926;2022-07-17T09:23:43;1.25;;;0.60;;
16813;SDS011;8524;57.650;11.926;2022-07-17T09:26:10;2.00;;;0.50;;
16813;SDS011;8524;57.650;11.926;2022-07-17T09:28:43;0.97;;;0.50;;
16813;SDS011;8524;57.650;11.926;2022-07-17T09:31:11;1.33;;;0.60;;
16813;SDS011;8524;57.650;11.926;2022-07-17T09:33:40;1.27;;;0.50;;
16813;SDS011;8524;57.650;11.926;2022-07-17T09:36:07;1.07;;;0.70;;
16813;SDS011;8524;57.650;11.926;2022-07-17T09:38:40;1.83;;;0.60;;
16813;SDS011;8524;57.650;11.926;2022-07-17T09:41:11;1.97;;;0.60;;
16813;SDS011;8524;57.650;11.926;2022-07-17T09:43:41;0.80;;;0.50;;
16813;SDS011;8524;57.650;11.926;2022-07-17T09:46:11;0.50;;;0.50;;
16813;SDS011;8524;57.650;11.926;2022-07-17T09:48:41;0.80;;;0.30;;
16813;SDS011;8524;57.650;11.926;2022-07-17T09:51:13;1.33;;;0.70;;
16813;SDS011;8524;57.650;11.926;2022-07-17T09:53:46;1.30;;;0.50;;
16813;SDS011;8524;57.650;11.926;2022-07-17T09:56:15;1.70;;;0.70;;
16813;SDS011;8524;57.650;11.926;2022-07-17T09:58:45;1.30;;;0.50;;
16813;SDS011;8524;57.650;11.926;2022-07-17T10:01:14;1.10;;;0.50;;
16813;SDS011;8524;57.650;11.926;2022-07-17T10:03:42;1.30;;;0.67;;
16813;SDS011;8524;57.650;11.926;2022-07-17T10:06:09;1.90;;;0.50;;
16813;SDS011;8524;57.650;11.926;2022-07-17T10:08:37;0.90;;;0.60;;
16813;SDS011;8524;57.650;11.926;2022-07-17T10:11:06;1.83;;;0.80;;
16813;SDS011;8524;57.650;11.926;2022-07-17T10:13:35;1.30;;;0.50;;
16813;SDS011;8524;57.650;11.926;2022-07-17T10:16:03;2.30;;;0.53;;
16813;SDS011;8524;57.650;11.926;2022-07-17T10:18:34;0.80;;;0.60;;
16813;SDS011;8524;57.650;11.926;2022-07-17T10:21:12;0.47;;;0.40;;
16813;SDS011;8524;57.650;11.926;2022-07-17T10:23:40;2.03;;;0.60;;
16813;SDS011;8524;57.650;11.926;2022-07-17T10:26:10;1.70;;;0.60;;
16813;SDS011;8524;57.650;11.926;2022-07-17T10:28:38;1.60;;;0.43;;
16813;SDS011;8524;57.650;11.926;2022-07-17T10:31:06;1.40;;;0.70;;
16813;SDS011;8524;57.650;11.926;2022-07-17T10:33:33;1.27;;;0.60;;
16813;SDS011;8524;57.650;11.926;2022-07-17T10:36:00;2.50;;;0.90;;
16813;SDS011;8524;57.650;11.926;2022-07-17T10:38:28;3.40;;;0.80;;
16813;SDS011;8524;57.650;11.926;2022-07-17T10:40:58;1.13;;;0.50;;
16813;SDS011;8524;57.650;11.926;2022-07-17T10:43:39;1.50;;;0.60;;
16813;SDS011;8524;57.650;11.926;2022-07-17T10:46:08;1.47;;;0.57;;
16813;SDS011;8524;57.650;11.926;2022-07-17T10:48:35;1.60;;;0.70;;
16813;SDS011;8524;57.650;11.926;2022-07-17T10:51:05;1.03;;;0.70;;
16813;SDS011;8524;57.650;11.926;2022-07-17T10:53:34;1.17;;;0.70;;
16813;SDS011;8524;57.650;11.926;2022-07-17T10:56:02;1.17;;;0.63;;
16813;SDS011;8524;57.650;11.926;2022-07-17T10:58:33;1.80;;;0.57;;
16813;SDS011;8524;57.650;11.926;2022-07-17T11:01:06;2.17;;;0.90;;
16813;SDS011;8524;57.650;11.926;2022-07-17T11:03:36;1.57;;;1.00;;
16813;SDS011;8524;57.650;11.926;2022-07-17T11:06:12;2.53;;;0.80;;
16813;SDS011;8524;57.650;11.926;2022-07-17T11:08:42;1.20;;;0.80;;
16813;SDS011;8524;57.650;11.926;2022-07-17T11:11:10;1.23;;;0.70;;
16813;SDS011;8524;57.650;11.926;2022-07-17T11:13:38;1.77;;;0.80;;
16813;SDS011;8524;57.650;11.926;2022-07-17T11:16:05;2.07;;;0.80;;
16813;SDS011;8524;57.650;11.926;2022-07-17T11:18:33;1.03;;;0.60;;
16813;SDS011;8524;57.650;11.926;2022-07-17T11:21:02;1.80;;;0.70;;
16813;SDS011;8524;57.650;11.926;2022-07-17T11:23:30;1.50;;;0.63;;
16813;SDS011;8524;57.650;11.926;2022-07-17T11:26:00;0.97;;;0.80;;
16813;SDS011;8524;57.650;11.926;2022-07-17T11:28:29;1.50;;;0.73;;
16813;SDS011;8524;57.650;11.926;2022-07-17T11:31:03;0.60;;;0.60;;
16813;SDS011;8524;57.650;11.926;2022-07-17T11:33:31;1.43;;;0.80;;
16813;SDS011;8524;57.650;11.926;2022-07-17T11:35:58;2.23;;;0.90;;
16813;SDS011;8524;57.650;11.926;2022-07-17T11:38:26;0.80;;;0.70;;
16813;SDS011;8524;57.650;11.926;2022-07-17T11:40:55;1.10;;;0.80;;
16813;SDS011;8524;57.650;11.926;2022-07-17T11:43:22;0.93;;;0.77;;
16813;SDS011;8524;57.650;11.926;2022-07-17T11:45:49;1.43;;;0.90;;
16813;SDS011;8524;57.650;11.926;2022-07-17T11:48:18;1.50;;;0.90;;
16813;SDS011;8524;57.650;11.926;2022-07-17T11:50:55;2.57;;;0.87;;
16813;SDS011;8524;57.650;11.926;2022-07-17T11:53:32;1.23;;;0.80;;
16813;SDS011;8524;57.650;11.926;2022-07-17T11:56:01;1.33;;;0.90;;
16813;SDS011;8524;57.650;11.926;2022-07-17T11:58:39;3.73;;;1.30;;
16813;SDS011;8524;57.650;11.926;2022-07-17T12:01:07;5.10;;;1.03;;
16813;SDS011;8524;57.650;11.926;2022-07-17T12:03:36;2.33;;;0.90;;
16813;SDS011;8524;57.650;11.926;2022-07-17T12:06:03;2.90;;;1.13;;
16813;SDS011;8524;57.650;11.926;2022-07-17T12:08:30;2.40;;;1.00;;
16813;SDS011;8524;57.650;11.926;2022-07-17T12:11:01;4.53;;;1.40;;
16813;SDS011;8524;57.650;11.926;2022-07-17T12:13:36;2.80;;;1.03;;
16813;SDS011;8524;57.650;11.926;2022-07-17T12:16:17;2.23;;;1.23;;
16813;SDS011;8524;57.650;11.926;2022-07-17T12:18:55;3.27;;;1.37;;
16813;SDS011;8524;57.650;11.926;2022-07-17T12:21:34;5.53;;;1.83;;
16813;SDS011;8524;57.650;11.926;2022-07-17T12:24:23;3.37;;;1.50;;
16813;SDS011;8524;57.650;11.926;2022-07-17T12:26:52;5.23;;;1.60;;
16813;SDS011;8524;57.650;11.926;2022-07-17T12:29:21;4.00;;;1.58;;
16813;SDS011;8524;57.650;11.926;2022-07-17T12:31:48;3.87;;;1.30;;
16813;SDS011;8524;57.650;11.926;2022-07-17T12:34:16;6.70;;;2.00;;
16813;SDS011;8524;57.650;11.926;2022-07-17T12:36:43;4.93;;;1.70;;
16813;SDS011;8524;57.650;11.926;2022-07-17T12:39:10;3.97;;;1.90;;
16813;SDS011;8524;57.650;11.926;2022-07-17T12:41:37;5.53;;;1.60;;
16813;SDS011;8524;57.650;11.926;2022-07-17T12:44:04;2.43;;;1.30;;
16813;SDS011;8524;57.650;11.926;2022-07-17T12:46:31;3.43;;;1.70;;
16813;SDS011;8524;57.650;11.926;2022-07-17T12:48:58;3.90;;;1.73;;
16813;SDS011;8524;57.650;11.926;2022-07-17T12:51:26;3.63;;;1.50;;
16813;SDS011;8524;57.650;11.926;2022-07-17T12:53:53;4.63;;;1.63;;
16813;SDS011;8524;57.650;11.926;2022-07-17T12:56:20;3.90;;;1.80;;
16813;SDS011;8524;57.650;11.926;2022-07-17T12:58:47;5.93;;;1.87;;
16813;SDS011;8524;57.650;11.926;2022-07-17T13:01:14;3.67;;;1.60;;
16813;SDS011;8524;57.650;11.926;2022-07-17T13:03:42;3.97;;;2.13;;
16813;SDS011;8524;57.650;11.926;2022-07-17T13:06:09;4.17;;;1.90;;
16813;SDS011;8524;57.650;11.926;2022-07-17T13:08:37;6.63;;;1.87;;
16813;SDS011;8524;57.650;11.926;2022-07-17T13:11:04;3.40;;;1.50;;
16813;SDS011;8524;57.650;11.926;2022-07-17T13:13:31;3.93;;;1.80;;
16813;SDS011;8524;57.650;11.926;2022-07-17T13:15:58;4.37;;;1.63;;
16813;SDS011;8524;57.650;11.926;2022-07-17T13:18:25;6.03;;;2.13;;
16813;SDS011;8524;57.650;11.926;2022-07-17T13:20:52;4.37;;;2.00;;
16813;SDS011;8524;57.650;11.926;2022-07-17T13:23:19;4.17;;;1.70;;
16813;SDS011;8524;57.650;11.926;2022-07-17T13:25:47;7.13;;;1.93;;
16813;SDS011;8524;57.650;11.926;2022-07-17T13:28:14;7.63;;;2.17;;
16813;SDS011;8524;57.650;11.926;2022-07-17T13:30:41;7.17;;;2.17;;
16813;SDS011;8524;57.650;11.926;2022-07-17T13:33:08;6.77;;;1.63;;
16813;SDS011;8524;57.650;11.926;2022-07-17T13:35:35;6.63;;;2.07;;
16813;SDS011;8524;57.650;11.926;2022-07-17T13:38:02;5.33;;;2.40;;
16813;SDS011;8524;57.650;11.926;2022-07-17T13:40:32;5.60;;;2.47;;
16813;SDS011;8524;57.650;11.926;2022-07-17T13:43:00;6.93;;;2.33;;
16813;SDS011;8524;57.650;11.926;2022-07-17T13:45:28;6.63;;;2.17;;
16813;SDS011;8524;57.650;11.926;2022-07-17T13:47:56;6.03;;;2.73;;
16813;SDS011;8524;57.650;11.926;2022-07-17T13:50:23;6.30;;;2.30;;
16813;SDS011;8524;57.650;11.926;2022-07-17T13:52:51;5.83;;;2.40;;
16813;SDS011;8524;57.650;11.926;2022-07-17T13:55:18;4.47;;;2.43;;
16813;SDS011;8524;57.650;11.926;2022-07-17T13:57:46;5.03;;;2.40;;
16813;SDS011;8524;57.650;11.926;2022-07-17T14:00:14;6.27;;;2.60;;
16813;SDS011;8524;57.650;11.926;2022-07-17T14:02:42;5.60;;;2.67;;
16813;SDS011;8524;57.650;11.926;2022-07-17T14:05:10;5.80;;;2.53;;
16813;SDS011;8524;57.650;11.926;2022-07-17T14:07:37;6.57;;;2.47;;
16813;SDS011;8524;57.650;11.926;2022-07-17T14:10:04;7.30;;;2.50;;
16813;SDS011;8524;57.650;11.926;2022-07-17T14:12:31;6.33;;;2.60;;
16813;SDS011;8524;57.650;11.926;2022-07-17T14:14:58;5.83;;;2.37;;
16813;SDS011;8524;57.650;11.926;2022-07-17T14:17:27;8.63;;;3.20;;
16813;SDS011;8524;57.650;11.926;2022-07-17T14:19:54;6.70;;;2.70;;
16813;SDS011;8524;57.650;11.926;2022-07-17T14:22:21;5.17;;;2.50;;
16813;SDS011;8524;57.650;11.926;2022-07-17T14:24:48;7.75;;;2.83;;
16813;SDS011;8524;57.650;11.926;2022-07-17T14:27:15;6.80;;;2.63;;
16813;SDS011;8524;57.650;11.926;2022-07-17T14:29:42;5.40;;;2.80;;
16813;SDS011;8524;57.650;11.926;2022-07-17T14:32:09;7.43;;;2.70;;
16813;SDS011;8524;57.650;11.926;2022-07-17T14:34:37;8.57;;;3.13;;
16813;SDS011;8524;57.650;11.926;2022-07-17T14:37:05;6.33;;;2.60;;
16813;SDS011;8524;57.650;11.926;2022-07-17T14:39:33;9.13;;;2.80;;
16813;SDS011;8524;57.650;11.926;2022-07-17T14:42:00;4.73;;;2.63;;
16813;SDS011;8524;57.650;11.926;2022-07-17T14:44:27;4.70;;;2.13;;
16813;SDS011;8524;57.650;11.926;2022-07-17T14:46:56;5.83;;;2.70;;
16813;SDS011;8524;57.650;11.926;2022-07-17T14:49:23;5.40;;;2.47;;